Time;durP1;ratioP1;P1;durP2;ratioP2;P2;SDS_P1;SDS_P2;PMS_P1;PMS_P2;Temp;Humidity;BMP_temperature;BMP_pressure;BME280_temperature;BME280_humidity;BME280_pressure;Samples;Min_cycle;Max_cycle;Signal;HPM_P1;HPM_P2
2021/11/03 00:00:45;;;;;;;11.52;4.93;;;;;;;4.80;100.00;100144.56;5037931;28;20491;-87
2021/11/03 00:03:11;;;;;;;18.13;5.20;;;;;;;4.81;100.00;100143.56;5021245;28;20102;-89
2021/11/03 00:05:42;;;;;;;9.60;3.83;;;;;;;4.83;100.00;100138.94;5037429;28;20043;-84
2021/11/03 00:08:08;;;;;;;13.52;4.90;;;;;;;4.94;100.00;100153.00;5022772;28;20037;-88
2021/11/03 00:10:34;;;;;;;14.90;5.13;;;;;;;4.97;100.00;100155.38;5054696;28;20040;-90
2021/11/03 00:13:00;;;;;;;12.07;4.00;;;;;;;5.00;100.00;100161.25;5038180;28;20043;-88
2021/11/03 00:15:25;;;;;;;12.65;4.10;;;;;;;5.16;100.00;100168.53;5037309;28;20071;-88
2021/11/03 00:17:51;;;;;;;8.88;4.18;;;;;;;5.19;100.00;100167.38;5037418;28;20033;-86
2021/11/03 00:20:17;;;;;;;11.57;3.60;;;;;;;5.16;100.00;100167.66;5053685;28;20024;-86
2021/11/03 00:22:42;;;;;;;10.07;3.47;;;;;;;5.20;100.00;100175.19;5020410;28;20032;-89
2021/11/03 00:25:08;;;;;;;12.30;3.63;;;;;;;5.17;100.00;100170.19;5020466;28;20040;-88
2021/11/03 00:27:34;;;;;;;8.68;3.95;;;;;;;5.20;100.00;100185.88;5053320;28;20033;-89
2021/11/03 00:29:59;;;;;;;11.30;3.65;;;;;;;5.21;100.00;100182.22;5053535;28;20025;-84
2021/11/03 00:32:25;;;;;;;12.88;3.58;;;;;;;5.22;100.00;100189.22;5037090;28;20031;-88
2021/11/03 00:34:51;;;;;;;8.65;3.40;;;;;;;5.17;100.00;100186.19;5020384;28;20031;-88
2021/11/03 00:37:16;;;;;;;10.13;3.15;;;;;;;5.13;100.00;100190.13;5037193;28;20494;-88
2021/11/03 00:39:42;;;;;;;12.32;3.58;;;;;;;5.20;100.00;100198.34;5021020;28;20030;-87
2021/11/03 00:42:08;;;;;;;8.32;2.80;;;;;;;5.15;100.00;100192.66;5054153;28;20355;-87
2021/11/03 00:44:34;;;;;;;8.98;3.05;;;;;;;5.19;100.00;100202.84;5020343;28;20094;-90
2021/11/03 00:47:00;;;;;;;13.57;3.72;;;;;;;5.12;100.00;100195.63;5036195;28;20040;-89
2021/11/03 00:49:25;;;;;;;9.68;3.00;;;;;;;5.10;100.00;100203.75;5036192;28;20036;-87
2021/11/03 00:51:51;;;;;;;13.10;4.00;;;;;;;5.13;100.00;100215.94;5052809;28;20035;-87
2021/11/03 00:54:18;;;;;;;7.35;3.08;;;;;;;5.02;100.00;100217.03;5019742;28;20029;-87
2021/11/03 00:56:46;;;;;;;12.48;3.28;;;;;;;4.91;100.00;100217.25;5053369;28;20048;-89
2021/11/03 00:59:12;;;;;;;13.68;4.25;;;;;;;4.83;100.00;100216.19;5021259;28;20036;-88
2021/11/03 01:01:37;;;;;;;11.82;3.00;;;;;;;4.68;100.00;100224.84;5020675;28;20033;-90
2021/11/03 01:04:03;;;;;;;11.45;3.30;;;;;;;4.47;100.00;100210.00;5036072;28;20044;-88
2021/11/03 01:06:29;;;;;;;7.53;3.33;;;;;;;4.45;100.00;100227.13;5053554;28;20395;-86
2021/11/03 01:08:54;;;;;;;9.77;2.83;;;;;;;4.32;100.00;100222.97;5036798;28;20522;-87
2021/11/03 01:11:20;;;;;;;8.73;3.28;;;;;;;4.22;100.00;100222.19;5020234;28;20036;-84
2021/11/03 01:13:46;;;;;;;11.05;3.75;;;;;;;4.12;100.00;100226.72;5036478;28;20041;-87
2021/11/03 01:16:11;;;;;;;13.07;3.13;;;;;;;3.99;100.00;100210.25;5037083;28;20067;-87
2021/11/03 01:18:37;;;;;;;9.45;3.30;;;;;;;3.87;100.00;100213.09;5037925;28;20045;-86
2021/11/03 01:21:03;;;;;;;14.55;3.30;;;;;;;3.90;100.00;100204.84;5037457;28;20028;-88
2021/11/03 01:23:30;;;;;;;10.30;3.88;;;;;;;4.05;100.00;100225.63;5053303;28;20040;-88
2021/11/03 01:25:58;;;;;;;11.65;3.63;;;;;;;4.07;100.00;100231.63;5019275;28;20032;-86
2021/11/03 01:28:24;;;;;;;12.27;4.32;;;;;;;3.96;100.00;100228.19;5036562;28;20037;-86
2021/11/03 01:30:50;;;;;;;9.90;3.88;;;;;;;3.99;100.00;100243.00;5019387;28;20040;-88
2021/11/03 01:33:18;;;;;;;9.20;3.83;;;;;;;3.99;100.00;100236.84;5052773;28;20029;-87
2021/11/03 01:35:45;;;;;;;10.93;4.28;;;;;;;4.00;100.00;100243.88;5036046;28;20033;-84
2021/11/03 01:38:11;;;;;;;10.98;3.45;;;;;;;3.93;100.00;100239.13;5019810;28;20044;-87
2021/11/03 01:40:39;;;;;;;11.73;3.90;;;;;;;4.02;100.00;100255.19;5035382;28;20028;-88
2021/11/03 01:43:06;;;;;;;12.32;3.78;;;;;;;3.95;100.00;100250.44;5018685;28;20126;-88
2021/11/03 01:45:33;;;;;;;9.63;3.78;;;;;;;3.95;100.00;100260.25;5051896;28;20025;-86
2021/11/03 01:48:04;;;;;;;8.43;3.35;;;;;;;3.88;100.00;100256.50;5053687;28;20021;-85
2021/11/03 01:50:41;;;;;;;10.57;3.92;;;;;;;3.82;100.00;100260.56;5052896;28;20087;-87
2021/11/03 01:53:12;;;;;;;8.85;3.40;;;;;;;3.91;100.00;100275.66;5035926;28;20079;-87
2021/11/03 01:55:50;;;;;;;10.35;3.85;;;;;;;3.96;100.00;100268.06;5019222;28;20442;-88
2021/11/03 01:58:20;;;;;;;13.60;3.80;;;;;;;3.92;100.00;100268.53;5051576;28;20040;-86
2021/11/03 02:00:46;;;;;;;9.38;3.65;;;;;;;3.89;100.00;100264.34;5035221;28;20028;-88
2021/11/03 02:03:16;;;;;;;9.02;3.40;;;;;;;3.77;100.00;100260.16;5018376;28;20503;-87
2021/11/03 02:05:45;;;;;;;8.15;2.92;;;;;;;3.90;100.00;100265.19;5034583;28;20067;-88
2021/11/03 02:08:11;;;;;;;12.32;3.70;;;;;;;3.82;100.00;100267.72;5034641;28;20120;-89
2021/11/03 02:10:37;;;;;;;7.10;3.20;;;;;;;3.78;100.00;100255.69;5034743;28;20443;-85
2021/11/03 02:13:03;;;;;;;13.38;3.83;;;;;;;3.71;100.00;100268.72;5034783;28;20035;-86
2021/11/03 02:15:29;;;;;;;7.53;2.33;;;;;;;3.85;100.00;100265.59;5051271;28;20028;-86
2021/11/03 02:17:55;;;;;;;10.57;2.63;;;;;;;3.88;100.00;100275.13;5051430;28;20067;-86
2021/11/03 02:20:24;;;;;;;7.82;2.58;;;;;;;3.79;100.00;100276.81;5017786;28;20094;-87
2021/11/03 02:23:09;;;;;;;8.88;2.10;;;;;;;3.93;100.00;100273.69;5034264;28;20036;-86
2021/11/03 02:25:42;;;;;;;5.60;2.28;;;;;;;4.07;100.00;100276.88;5034516;28;20055;-90
2021/11/03 02:28:08;;;;;;;12.50;2.53;;;;;;;4.34;100.00;100286.69;5018191;28;20040;-89
2021/11/03 02:30:35;;;;;;;8.90;2.03;;;;;;;4.52;100.00;100287.59;5034380;28;20041;-89
2021/11/03 02:33:08;;;;;;;6.18;1.80;;;;;;;4.61;100.00;100285.88;5017921;28;20044;-88
2021/11/03 02:35:38;;;;;;;5.35;2.33;;;;;;;4.69;100.00;100279.81;5050940;28;20057;-87
2021/11/03 02:38:05;;;;;;;6.72;2.15;;;;;;;4.60;100.00;100278.84;5034642;28;20040;-88
2021/11/03 02:40:46;;;;;;;9.23;2.13;;;;;;;4.58;100.00;100273.69;5017888;28;20043;-89
2021/11/03 02:43:28;;;;;;;11.95;2.15;;;;;;;4.58;100.00;100287.00;5034832;28;20056;-85
2021/11/03 02:45:59;;;;;;;5.13;1.65;;;;;;;4.51;100.00;100295.75;5050663;28;20455;-87
2021/11/03 02:48:27;;;;;;;11.52;2.00;;;;;;;4.46;100.00;100303.31;5051019;28;20037;-87
2021/11/03 02:50:57;;;;;;;7.03;2.05;;;;;;;4.40;100.00;100300.28;5067308;28;20029;-86
2021/11/03 02:53:23;;;;;;;10.00;2.67;;;;;;;4.26;100.00;100299.91;5034170;28;20166;-88
2021/11/03 02:55:49;;;;;;;6.75;2.10;;;;;;;4.17;100.00;100304.28;5017279;28;20050;-85
2021/11/03 02:58:15;;;;;;;5.32;1.50;;;;;;;4.17;100.00;100309.59;5017902;28;20040;-87
2021/11/03 03:00:41;;;;;;;8.88;1.85;;;;;;;4.24;100.00;100305.38;5050008;28;20043;-89
2021/11/03 03:03:07;;;;;;;6.57;1.92;;;;;;;4.18;100.00;100311.25;5050348;28;20037;-87
2021/11/03 03:05:32;;;;;;;8.45;1.98;;;;;;;4.16;100.00;100313.25;5033655;28;20021;-87
2021/11/03 03:07:58;;;;;;;8.30;1.95;;;;;;;4.07;100.00;100303.47;5017717;28;20467;-88
2021/11/03 03:10:23;;;;;;;10.73;1.83;;;;;;;4.15;100.00;100316.88;5033701;28;20045;-88
2021/11/03 03:12:51;;;;;;;7.88;1.90;;;;;;;4.14;100.00;100301.91;5050507;28;20064;-89
2021/11/03 03:15:17;;;;;;;15.05;2.33;;;;;;;4.14;100.00;100324.03;5050051;28;20072;-88
2021/11/03 03:17:42;;;;;;;11.13;2.17;;;;;;;4.07;100.00;100325.59;5050392;28;20056;-85
2021/11/03 03:20:09;;;;;;;17.23;1.90;;;;;;;4.02;100.00;100311.88;5033476;28;20048;-84
2021/11/03 03:22:35;;;;;;;8.07;1.48;;;;;;;4.12;100.00;100314.53;5050099;28;20044;-89
2021/11/03 03:25:00;;;;;;;9.32;1.67;;;;;;;4.15;100.00;100312.44;5050118;28;20033;-87
2021/11/03 03:27:26;;;;;;;6.20;2.28;;;;;;;4.31;100.00;100313.59;5017297;28;20035;-88
2021/11/03 03:29:52;;;;;;;12.27;1.77;;;;;;;4.37;100.00;100323.69;5033364;28;20395;-88
2021/11/03 03:32:18;;;;;;;5.10;1.15;;;;;;;4.41;100.00;100320.56;5051443;28;20107;-88
2021/11/03 03:34:44;;;;;;;8.98;1.55;;;;;;;4.46;100.00;100328.13;5021411;28;20036;-91
2021/11/03 03:37:10;;;;;;;10.15;1.83;;;;;;;4.42;100.00;100321.44;5037813;28;20040;-87
2021/11/03 03:39:36;;;;;;;10.18;1.67;;;;;;;4.56;100.00;100320.94;5021075;28;20064;-86
2021/11/03 03:42:07;;;;;;;5.97;1.30;;;;;;;4.72;100.00;100338.09;5037533;28;20071;-87
2021/11/03 03:44:33;;;;;;;9.90;1.50;;;;;;;4.76;100.00;100331.47;5021206;28;20037;-89
2021/11/03 03:46:59;;;;;;;10.23;1.60;;;;;;;4.71;100.00;100345.25;5021040;28;20060;-85
2021/11/03 03:49:24;;;;;;;11.73;2.90;;;;;;;4.62;100.00;100340.81;5054350;28;20506;-84
2021/11/03 03:51:50;;;;;;;10.75;2.55;;;;;;;4.63;100.00;100335.34;5020999;28;20086;-87
2021/11/03 03:54:16;;;;;;;6.15;1.40;;;;;;;4.61;100.00;100350.63;5053790;28;20056;-88
2021/11/03 03:56:42;;;;;;;5.97;1.23;;;;;;;4.58;100.00;100347.41;5037132;28;20501;-87
2021/11/03 03:59:07;;;;;;;6.72;1.48;;;;;;;4.73;100.00;100353.06;5053983;28;20037;-87
2021/11/03 04:01:33;;;;;;;9.07;2.00;;;;;;;4.83;100.00;100354.69;5037400;28;20025;-88
2021/11/03 04:03:59;;;;;;;7.80;1.23;;;;;;;4.85;100.00;100355.41;5020969;28;20029;-87
2021/11/03 04:06:25;;;;;;;13.70;2.17;;;;;;;5.01;100.00;100361.91;5053699;28;20471;-88
2021/11/03 04:08:51;;;;;;;8.57;1.90;;;;;;;5.03;100.00;100351.94;5020708;28;20103;-88
2021/11/03 04:11:16;;;;;;;6.28;1.00;;;;;;;5.07;100.00;100363.97;5070321;28;20033;-85
2021/11/03 04:13:42;;;;;;;5.63;1.20;;;;;;;4.98;100.00;100356.88;5020598;28;20092;-88
2021/11/03 04:16:08;;;;;;;3.47;1.00;;;;;;;5.03;100.00;100365.28;5020643;28;20115;-87
2021/11/03 04:18:34;;;;;;;75.97;8.88;;;;;;;5.14;100.00;100366.88;5053623;28;20100;-88
2021/11/03 04:21:00;;;;;;;13.70;2.70;;;;;;;5.25;100.00;100370.16;5053284;28;20029;-89
2021/11/03 04:23:26;;;;;;;20.95;3.03;;;;;;;5.32;100.00;100385.53;5037165;28;20048;-88
2021/11/03 04:25:52;;;;;;;22.67;4.38;;;;;;;5.32;100.00;100373.06;5052978;28;20039;-89
2021/11/03 04:28:18;;;;;;;65.53;8.32;;;;;;;5.31;100.00;100367.88;5053038;28;20036;-87
2021/11/03 04:30:44;;;;;;;50.13;6.13;;;;;;;5.41;100.00;100389.97;5036597;28;20073;-89
2021/11/03 04:33:10;;;;;;;22.27;3.83;;;;;;;5.32;100.00;100391.75;5036604;28;20099;-86
2021/11/03 04:35:36;;;;;;;32.45;3.55;;;;;;;5.18;100.00;100397.56;5020209;28;20036;-86
2021/11/03 04:38:03;;;;;;;10.40;2.67;;;;;;;5.07;100.00;100406.59;5036657;28;20064;-89
2021/11/03 04:40:29;;;;;;;16.50;3.42;;;;;;;5.03;100.00;100379.44;5020302;28;20080;-88
2021/11/03 04:42:55;;;;;;;11.52;2.60;;;;;;;5.31;100.00;100384.72;5052720;28;20692;-89
2021/11/03 04:45:23;;;;;;;18.88;3.38;;;;;;;5.45;100.00;100402.00;5052458;28;20029;-87
2021/11/03 04:47:49;;;;;;;9.48;2.28;;;;;;;5.35;100.00;100391.44;5052821;28;20111;-89
2021/11/03 04:50:25;;;;;;;9.35;1.60;;;;;;;5.39;100.00;100394.63;5036764;28;20033;-88
2021/11/03 04:52:51;;;;;;;9.63;1.83;;;;;;;5.49;100.00;100406.06;5019767;28;20036;-87
2021/11/03 04:55:17;;;;;;;23.75;4.55;;;;;;;5.57;100.00;100408.81;5053486;28;20029;-88
2021/11/03 04:57:43;;;;;;;9.90;2.05;;;;;;;5.62;100.00;100414.53;5036889;28;20024;-88
2021/11/03 05:00:14;;;;;;;8.38;1.27;;;;;;;5.67;100.00;100420.25;5053730;28;20031;-88
2021/11/03 05:02:40;;;;;;;5.15;1.20;;;;;;;5.71;100.00;100428.75;5021023;28;20029;-87
2021/11/03 05:05:06;;;;;;;9.23;1.70;;;;;;;5.61;100.00;100404.84;5020372;28;20470;-86
2021/11/03 05:07:32;;;;;;;7.13;1.45;;;;;;;5.70;100.00;100427.09;5053348;28;20025;-85
2021/11/03 05:09:57;;;;;;;7.35;1.30;;;;;;;5.75;100.00;100429.31;5021432;28;20040;-85
2021/11/03 05:12:23;;;;;;;14.00;2.08;;;;;;;5.81;100.00;100434.88;5037224;28;20029;-87
2021/11/03 05:14:48;;;;;;;6.85;1.33;;;;;;;5.84;100.00;100439.06;5054087;28;20371;-84
2021/11/03 05:17:14;;;;;;;3.78;1.05;;;;;;;5.81;100.00;100432.19;5020295;28;20044;-88
2021/11/03 05:19:40;;;;;;;4.97;1.35;;;;;;;5.86;100.00;100443.25;5019865;28;20041;-84
2021/11/03 05:22:07;;;;;;;8.80;1.60;;;;;;;5.92;100.00;100444.47;5052204;28;20040;-89
2021/11/03 05:24:33;;;;;;;15.27;2.60;;;;;;;5.94;100.00;100455.88;5019212;28;20132;-87
2021/11/03 05:26:59;;;;;;;9.73;2.33;;;;;;;5.88;100.00;100429.78;5052101;28;20086;-85
2021/11/03 05:29:25;;;;;;;7.78;1.13;;;;;;;5.91;100.00;100440.97;5019154;28;20171;-86
2021/11/03 05:31:53;;;;;;;2.92;1.00;;;;;;;5.91;100.00;100440.13;5035696;28;20040;-87
2021/11/03 05:34:18;;;;;;;5.70;0.98;;;;;;;6.00;100.00;100459.75;5035882;28;20048;-86
2021/11/03 05:36:44;;;;;;;7.13;1.27;;;;;;;6.11;100.00;100463.03;5035368;28;20029;-88
2021/11/03 05:39:13;;;;;;;6.82;1.33;;;;;;;6.10;100.00;100464.00;5051539;28;20028;-87
2021/11/03 05:41:39;;;;;;;5.75;0.88;;;;;;;6.08;100.00;100470.50;5051957;28;20032;-87
2021/11/03 05:44:10;;;;;;;6.97;1.13;;;;;;;6.03;100.00;100464.78;5035377;28;20028;-87
2021/11/03 05:46:40;;;;;;;10.10;1.25;;;;;;;5.96;100.00;100463.72;5018783;28;20039;-87
2021/11/03 05:49:09;;;;;;;6.05;1.05;;;;;;;5.98;100.00;100475.94;5018830;28;20078;-84
2021/11/03 05:51:36;;;;;;;8.73;1.20;;;;;;;5.90;100.00;100481.13;5018721;28;20071;-88
2021/11/03 05:54:03;;;;;;;7.80;1.10;;;;;;;5.76;100.00;100473.66;5018732;28;20036;-85
2021/11/03 05:56:29;;;;;;;10.60;1.20;;;;;;;5.81;100.00;100493.56;5017752;28;20040;-86
2021/11/03 05:58:54;;;;;;;8.40;1.10;;;;;;;5.83;100.00;100491.59;5018411;28;20124;-89
2021/11/03 06:01:20;;;;;;;7.32;1.38;;;;;;;5.85;100.00;100502.13;5034923;28;20040;-88
2021/11/03 06:03:46;;;;;;;4.40;0.85;;;;;;;5.91;100.00;100499.69;5018349;28;20119;-86
2021/11/03 06:06:12;;;;;;;6.85;1.08;;;;;;;6.04;100.00;100504.66;5018398;28;20387;-84
2021/11/03 06:08:38;;;;;;;5.72;1.50;;;;;;;6.03;100.00;100499.47;5051293;28;20033;-87
2021/11/03 06:11:04;;;;;;;4.22;1.13;;;;;;;6.03;100.00;100500.31;5034958;28;20035;-91
2021/11/03 06:13:30;;;;;;;4.75;1.27;;;;;;;6.07;100.00;100517.72;5034674;28;20033;-88
2021/11/03 06:15:57;;;;;;;8.45;1.10;;;;;;;6.02;100.00;100509.31;5051157;28;20078;-85
2021/11/03 06:18:22;;;;;;;8.20;1.10;;;;;;;6.00;100.00;100508.63;5018244;28;20025;-90
2021/11/03 06:20:48;;;;;;;3.88;0.80;;;;;;;6.05;100.00;100522.34;5050916;28;20037;-87
2021/11/03 06:23:14;;;;;;;1.88;0.80;;;;;;;6.02;100.00;100517.31;5051004;28;20033;-89
2021/11/03 06:25:40;;;;;;;6.25;1.45;;;;;;;5.98;100.00;100513.28;5067600;28;20024;-87
2021/11/03 06:28:06;;;;;;;4.68;1.00;;;;;;;5.95;100.00;100518.91;5051136;28;20036;-89
2021/11/03 06:30:33;;;;;;;8.90;1.00;;;;;;;5.94;100.00;100528.75;5034318;28;20025;-89
2021/11/03 06:32:59;;;;;;;7.10;1.02;;;;;;;5.90;100.00;100519.34;5034167;28;20032;-87
2021/11/03 06:35:26;;;;;;;8.27;1.17;;;;;;;5.93;100.00;100507.53;5034171;28;20155;-89
2021/11/03 06:37:52;;;;;;;2.85;1.25;;;;;;;5.96;100.00;100519.78;5050956;28;20478;-89
2021/11/03 06:40:20;;;;;;;6.20;1.10;;;;;;;5.94;100.00;100515.41;5017784;28;20080;-87
2021/11/03 06:42:46;;;;;;;5.30;1.08;;;;;;;6.04;100.00;100530.53;5051015;28;20487;-89
2021/11/03 06:45:12;;;;;;;3.60;0.98;;;;;;;5.98;100.00;100529.31;5034363;28;20112;-86
2021/11/03 06:47:38;;;;;;;8.77;1.00;;;;;;;6.04;100.00;100541.22;5017428;28;20123;-88
2021/11/03 06:50:06;;;;;;;4.72;0.90;;;;;;;5.94;100.00;100547.44;5050625;28;20033;-89
2021/11/03 06:52:32;;;;;;;6.57;1.15;;;;;;;5.77;100.00;100534.03;5050659;28;20514;-89
2021/11/03 06:54:58;;;;;;;5.47;1.02;;;;;;;5.76;100.00;100543.03;5017563;28;20470;-87
2021/11/03 06:57:24;;;;;;;5.63;1.00;;;;;;;5.64;100.00;100535.25;5050738;28;20032;-88
2021/11/03 06:59:50;;;;;;;5.15;1.23;;;;;;;5.60;100.00;100539.19;5033896;28;20463;-85
2021/11/03 07:02:16;;;;;;;2.55;0.68;;;;;;;5.62;100.00;100534.56;5033701;28;20501;-89
2021/11/03 07:04:42;;;;;;;4.00;0.93;;;;;;;5.66;100.00;100549.28;5017413;28;20025;-88
2021/11/03 07:07:09;;;;;;;4.78;1.48;;;;;;;5.66;100.00;100551.94;5050109;28;20498;-88
2021/11/03 07:09:35;;;;;;;5.05;1.30;;;;;;;5.69;100.00;100561.47;5033748;28;20028;-88
2021/11/03 07:12:00;;;;;;;6.50;1.00;;;;;;;5.68;100.00;100557.94;5033984;28;20033;-90
2021/11/03 07:14:26;;;;;;;5.43;1.00;;;;;;;5.76;100.00;100561.72;5050127;28;20070;-87
2021/11/03 07:16:52;;;;;;;6.25;1.00;;;;;;;5.81;100.00;100564.78;5033619;28;20037;-90
2021/11/03 07:19:20;;;;;;;12.57;1.33;;;;;;;5.92;100.00;100569.88;5017454;28;20055;-86
2021/11/03 07:21:45;;;;;;;6.93;0.80;;;;;;;5.99;100.00;100576.34;5050266;28;20135;-90
2021/11/03 07:24:13;;;;;;;3.88;0.90;;;;;;;6.07;100.00;100572.94;5033904;28;20083;-85
2021/11/03 07:26:47;;;;;;;8.93;0.90;;;;;;;6.13;100.00;100578.47;5033587;28;20033;-88
2021/11/03 07:29:13;;;;;;;5.18;1.17;;;;;;;6.11;100.00;100591.16;5033406;28;20467;-85
2021/11/03 07:31:39;;;;;;;7.15;0.98;;;;;;;5.98;100.00;100569.34;5049758;28;20037;-86
2021/11/03 07:34:07;;;;;;;10.48;0.93;;;;;;;6.06;100.00;100588.09;5017355;28;20550;-86
2021/11/03 07:36:33;;;;;;;6.70;0.90;;;;;;;6.08;100.00;100593.28;5033381;28;20033;-85
2021/11/03 07:38:59;;;;;;;6.85;0.93;;;;;;;6.13;100.00;100591.84;5033467;28;20083;-88
2021/11/03 07:41:25;;;;;;;5.10;0.90;;;;;;;6.12;100.00;100597.34;5017029;28;20029;-89
2021/11/03 07:43:51;;;;;;;8.00;1.23;;;;;;;6.12;100.00;100608.84;5017247;28;20502;-88
2021/11/03 07:46:17;;;;;;;4.13;1.67;;;;;;;6.12;100.00;100610.69;5033358;28;20029;-87
2021/11/03 07:48:43;;;;;;;5.93;1.38;;;;;;;6.04;100.00;100610.59;5066721;28;20116;-86
2021/11/03 07:51:13;;;;;;;7.22;1.00;;;;;;;6.04;100.00;100619.44;5050039;28;20083;-91
2021/11/03 07:53:41;;;;;;;10.38;1.25;;;;;;;5.92;100.00;100617.94;5033425;28;20490;-89
2021/11/03 07:56:11;;;;;;;7.30;1.50;;;;;;;5.97;100.00;100626.34;5050029;28;20546;-88
2021/11/03 07:58:38;;;;;;;8.95;1.20;;;;;;;5.88;100.00;100616.56;5049826;28;20111;-87
2021/11/03 08:01:04;;;;;;;12.68;1.52;;;;;;;6.06;100.00;100638.81;5033519;28;20050;-87
2021/11/03 08:03:30;;;;;;;10.88;0.90;;;;;;;6.03;100.00;100632.94;5050099;28;20546;-87
2021/11/03 08:05:56;;;;;;;9.35;1.40;;;;;;;6.06;100.00;100635.28;5049685;28;20111;-87
2021/11/03 08:08:24;;;;;;;6.85;1.05;;;;;;;6.14;100.00;100651.44;5049737;28;20025;-87
2021/11/03 08:10:53;;;;;;;4.70;1.35;;;;;;;6.12;100.00;100651.56;5016953;28;20048;-88
2021/11/03 08:13:21;;;;;;;5.80;0.98;;;;;;;6.10;100.00;100663.38;5017379;28;20126;-88
2021/11/03 08:15:51;;;;;;;4.32;0.77;;;;;;;6.01;100.00;100653.63;5033267;28;20072;-89
2021/11/03 08:18:19;;;;;;;6.97;0.98;;;;;;;6.10;100.00;100663.38;5049998;28;20037;-89
2021/11/03 08:20:47;;;;;;;7.32;1.23;;;;;;;6.12;100.00;100666.75;5052758;28;20112;-85
2021/11/03 08:23:14;;;;;;;8.10;1.52;;;;;;;6.23;100.00;100679.88;5037231;28;20045;-86
2021/11/03 08:25:43;;;;;;;8.55;1.00;;;;;;;6.27;100.00;100675.06;5053072;28;20076;-87
2021/11/03 08:28:09;;;;;;;9.23;1.35;;;;;;;6.36;100.00;100683.03;5053293;28;20029;-88
2021/11/03 08:30:43;;;;;;;8.50;1.45;;;;;;;6.38;100.00;100680.22;5037157;28;20039;-88
2021/11/03 08:33:14;;;;;;;4.35;1.05;;;;;;;6.48;100.00;100694.34;5036692;28;20033;-87
2021/11/03 08:35:42;;;;;;;6.22;1.00;;;;;;;6.59;100.00;100690.63;5036528;28;20079;-88
2021/11/03 08:38:11;;;;;;;8.82;1.00;;;;;;;6.62;100.00;100690.31;5053030;28;20128;-86
2021/11/03 08:40:37;;;;;;;5.30;0.90;;;;;;;6.62;100.00;100692.16;5053157;28;20498;-86
2021/11/03 08:43:07;;;;;;;9.00;1.95;;;;;;;6.60;100.00;100694.97;5052791;28;20033;-88
2021/11/03 08:45:33;;;;;;;3.55;1.20;;;;;;;6.63;100.00;100697.34;5020064;28;20033;-87
2021/11/03 08:47:59;;;;;;;8.18;2.05;;;;;;;6.67;100.00;100695.19;5052708;28;20028;-87
2021/11/03 08:50:28;;;;;;;6.28;0.90;;;;;;;6.70;100.00;100710.94;5036611;28;20463;-87
2021/11/03 08:52:54;;;;;;;8.63;1.55;;;;;;;6.77;100.00;100709.31;5036079;28;20025;-87
2021/11/03 08:55:21;;;;;;;7.63;1.20;;;;;;;6.85;100.00;100721.91;5020018;28;20029;-87
2021/11/03 08:57:47;;;;;;;8.85;1.00;;;;;;;6.80;100.00;100719.69;5052759;28;20545;-88
2021/11/03 09:00:17;;;;;;;5.32;0.93;;;;;;;6.86;100.00;100724.47;5019842;28;20033;-90
2021/11/03 09:02:45;;;;;;;14.35;2.72;;;;;;;6.81;100.00;100732.91;5035968;28;20036;-86
2021/11/03 09:05:11;;;;;;;3.85;1.08;;;;;;;6.80;100.00;100733.94;5052688;28;20036;-86
2021/11/03 09:07:37;;;;;;;9.23;0.98;;;;;;;6.87;100.00;100719.94;5035885;28;20037;-87
2021/11/03 09:10:06;;;;;;;8.13;1.45;;;;;;;7.18;100.00;100739.94;5036098;28;20029;-86
2021/11/03 09:12:32;;;;;;;6.50;1.50;;;;;;;7.38;100.00;100739.75;5019536;28;20033;-86
2021/11/03 09:14:58;;;;;;;8.07;0.90;;;;;;;7.48;100.00;100740.50;5052295;28;20031;-88
2021/11/03 09:17:26;;;;;;;4.40;1.55;;;;;;;7.49;100.00;100740.38;5035781;28;20037;-88
2021/11/03 09:19:52;;;;;;;5.78;0.82;;;;;;;7.46;100.00;100748.72;5035614;28;20025;-88
2021/11/03 09:22:18;;;;;;;7.25;1.20;;;;;;;7.38;99.86;100758.47;5019268;28;20554;-87
2021/11/03 09:24:44;;;;;;;9.40;1.05;;;;;;;7.30;99.58;100759.25;5053537;28;20033;-88
2021/11/03 09:27:14;;;;;;;8.85;1.67;;;;;;;7.39;99.48;100763.69;5035418;28;20029;-91
2021/11/03 09:29:51;;;;;;;6.63;1.23;;;;;;;7.44;98.77;100739.16;5051839;28;20483;-87
2021/11/03 09:32:20;;;;;;;7.40;1.20;;;;;;;7.52;99.73;100751.75;5035348;28;20395;-90
2021/11/03 09:34:47;;;;;;;6.05;1.27;;;;;;;7.55;98.65;100752.28;5019361;28;20041;-87
2021/11/03 09:37:17;;;;;;;8.73;1.17;;;;;;;7.38;98.58;100740.63;5051947;28;20510;-90
2021/11/03 09:39:47;;;;;;;7.53;1.10;;;;;;;7.29;99.12;100756.75;5019092;28;20424;-88
2021/11/03 09:42:15;;;;;;;8.13;1.45;;;;;;;7.23;98.54;100744.84;5035131;28;20028;-87
2021/11/03 09:44:43;;;;;;;8.70;1.60;;;;;;;7.26;99.14;100755.22;5035165;28;20032;-83
2021/11/03 09:47:15;;;;;;;6.82;1.13;;;;;;;7.30;99.04;100753.06;5034947;28;20467;-87
2021/11/03 09:49:43;;;;;;;6.90;1.10;;;;;;;7.37;98.31;100760.31;5053128;28;20029;-87
2021/11/03 09:52:20;;;;;;;9.27;1.40;;;;;;;7.36;98.41;100755.16;5035366;28;20033;-82
2021/11/03 09:54:48;;;;;;;7.25;1.33;;;;;;;7.46;98.41;100763.91;5034825;28;20021;-84
2021/11/03 09:57:26;;;;;;;10.77;1.52;;;;;;;7.52;98.41;100774.00;5018502;28;20044;-87
2021/11/03 10:00:27;;;;;;;7.30;1.50;;;;;;;7.60;98.08;100770.53;5051522;28;20033;-87
2021/11/03 10:03:22;;;;;;;7.35;1.25;;;;;;;7.71;97.96;100780.97;5034977;28;20037;-86
2021/11/03 10:06:05;;;;;;;9.05;1.42;;;;;;;7.78;97.78;100767.78;5041566;28;20053;-86
2021/11/03 10:08:37;;;;;;;12.23;1.50;;;;;;;7.95;97.15;100774.13;5018771;28;20490;-86
2021/11/03 10:11:39;;;;;;;12.45;1.35;;;;;;;8.13;96.71;100777.56;5051476;28;20037;-88
2021/11/03 10:14:07;;;;;;;2.42;0.85;;;;;;;8.27;95.82;100785.00;4997256;28;20041;-86
2021/11/03 10:16:32;;;;;;;7.40;0.90;;;;;;;8.43;94.20;100788.78;5034861;28;20037;-87
2021/11/03 10:19:38;;;;;;;16.75;2.00;;;;;;;8.51;93.27;100784.28;5034681;28;20086;-87
2021/11/03 10:22:33;;;;;;;10.25;1.25;;;;;;;8.61;92.28;100783.34;5019004;28;20029;-87
2021/11/03 10:25:13;;;;;;;5.32;0.82;;;;;;;8.59;92.20;100784.31;5034699;28;20021;-85
2021/11/03 10:27:44;;;;;;;9.77;1.30;;;;;;;8.71;91.18;100792.09;5017987;28;20036;-86
2021/11/03 10:30:24;;;;;;;7.85;1.45;;;;;;;8.67;91.53;100796.06;5034396;28;20492;-85
2021/11/03 10:32:53;;;;;;;5.15;1.52;;;;;;;8.68;91.04;100793.25;5052078;28;20024;-88
2021/11/03 10:35:43;;;;;;;13.27;1.80;;;;;;;8.77;91.24;100794.09;5018454;28;20028;-87
2021/11/03 10:38:18;;;;;;;13.88;2.13;;;;;;;8.86;91.01;100803.81;5034519;28;20479;-87
2021/11/03 10:41:07;;;;;;;9.57;1.17;;;;;;;8.99;90.56;100798.81;5034315;28;20124;-86
2021/11/03 10:43:39;;;;;;;6.03;0.98;;;;;;;9.32;88.89;100800.75;5049948;28;20044;-87
2021/11/03 10:46:22;;;;;;;8.07;1.42;;;;;;;9.76;88.23;100805.75;5050910;28;20509;-87
2021/11/03 10:48:54;;;;;;;10.27;1.70;;;;;;;10.19;87.20;100806.34;5050705;28;20390;-87
2021/11/03 10:51:31;;;;;;;13.38;3.45;;;;;;;10.59;85.75;100808.09;5017968;28;20460;-86
2021/11/03 10:54:05;;;;;;;8.45;1.65;;;;;;;11.03;82.08;100809.38;5050221;28;20410;-88
2021/11/03 10:56:34;;;;;;;11.77;1.60;;;;;;;11.16;81.75;100813.16;5050704;28;20126;-89
2021/11/03 10:59:03;;;;;;;13.18;2.05;;;;;;;11.60;80.90;100814.38;5017574;28;20036;-86
2021/11/03 11:01:32;;;;;;;16.67;1.23;;;;;;;12.18;78.25;100807.44;5050552;28;20037;-87
2021/11/03 11:03:58;;;;;;;5.95;1.00;;;;;;;12.60;76.63;100816.72;5033717;28;20037;-89
2021/11/03 11:06:36;;;;;;;11.35;1.20;;;;;;;12.70;75.46;100811.03;5050476;28;20078;-87
2021/11/03 11:09:27;;;;;;;8.20;1.70;;;;;;;12.91;75.07;100807.53;5050337;28;20029;-87
2021/11/03 11:11:56;;;;;;;6.53;1.45;;;;;;;13.41;72.60;100813.91;5033546;28;20035;-88
2021/11/03 11:14:23;;;;;;;5.50;1.17;;;;;;;13.37;69.43;100818.06;5050278;28;20037;-87
2021/11/03 11:16:56;;;;;;;7.57;1.20;;;;;;;13.53;69.45;100817.78;5050410;28;20099;-88
2021/11/03 11:20:00;;;;;;;8.93;1.67;;;;;;;13.54;67.83;100813.22;5017368;28;20036;-86
2021/11/03 11:22:41;;;;;;;8.52;1.30;;;;;;;13.79;67.19;100822.59;5038553;28;20060;-85
2021/11/03 11:25:32;;;;;;;15.85;1.73;;;;;;;14.13;66.98;100828.22;5051325;28;20112;-88
2021/11/03 11:28:22;;;;;;;5.18;1.02;;;;;;;14.46;64.06;100812.22;5033481;28;20052;-87
2021/11/03 11:30:56;;;;;;;7.75;1.48;;;;;;;14.75;62.87;100827.38;5051059;28;20029;-89